Bath, South Carolina
Current Conditions -  °F | °C
As of 6:53 PM on Monday 24 Nov 2014 (Local Time) from KDNL Reporting Station
Light Rain Light Rain  
Wind Chill: 67°   Ceiling: Unl
Heat Index: 67°   Visibility: 10mi
Dew Point: 62°   Wind: 6mph
Humidity: 84%   Direction: 170°S
Pressure: 29.89"   Gusts: NA
Location:  33.5°N, 81.87°W
Report Text: KDNL 242353Z AUTO 17005KT 10SM -RA FEW100 FEW120 19/17 A2989 RMK AO2 SLP118 P0000 60001 T01940167 10228 20194 53025
Loading
Personal Weather Stations






























Interactive Weather Map New forecast layout! Learn more

10-Day Weather Forecast

Advertisements
Track Severe Weather on mobile